Time;durP1;ratioP1;P1;durP2;ratioP2;P2;SDS_P1;SDS_P2;PMS_P1;PMS_P2;Temp;Humidity;BMP_temperature;BMP_pressure;BME280_temperature;BME280_humidity;BME280_pressure;Samples;Min_cycle;Max_cycle;Signal;HPM_P1;HPM_P2
2022/08/03 00:02:18;;;;;;;3.30;2.03;;;;;;;28.46;33.76;101159.06;5091534;28;20044;-71
2022/08/03 00:04:46;;;;;;;3.33;1.92;;;;;;;28.45;33.74;101157.34;5087048;28;20052;-72
2022/08/03 00:07:14;;;;;;;3.38;2.20;;;;;;;28.42;33.86;101158.63;5071503;28;20067;-71
2022/08/03 00:09:44;;;;;;;3.90;2.17;;;;;;;28.41;34.14;101151.34;5094792;28;20531;-71
2022/08/03 00:12:12;;;;;;;3.85;2.20;;;;;;;28.38;34.11;101160.13;5089511;28;20076;-71
2022/08/03 00:14:40;;;;;;;3.97;2.10;;;;;;;28.35;34.49;101150.25;5069465;28;20052;-71
2022/08/03 00:17:08;;;;;;;3.97;2.28;;;;;;;28.33;34.32;101149.56;5087083;28;20032;-71
2022/08/03 00:19:36;;;;;;;3.55;2.30;;;;;;;28.31;34.44;101148.94;5087115;28;20150;-70
2022/08/03 00:22:04;;;;;;;3.42;1.83;;;;;;;28.28;34.34;101143.78;5087860;28;20028;-70
2022/08/03 00:24:34;;;;;;;4.15;2.40;;;;;;;28.26;34.58;101143.13;5087112;28;20424;-70
2022/08/03 00:27:04;;;;;;;4.85;2.20;;;;;;;28.26;34.81;101142.25;5088532;28;20044;-70
2022/08/03 00:29:32;;;;;;;3.60;2.13;;;;;;;28.21;34.37;101144.84;5064960;28;20047;-70
2022/08/03 00:32:20;;;;;;;4.07;2.40;;;;;;;28.18;34.41;101139.66;5087238;28;20119;-70
2022/08/03 00:34:51;;;;;;;4.20;2.20;;;;;;;28.16;34.57;101144.63;5087403;28;20044;-70
2022/08/03 00:37:25;;;;;;;4.25;2.25;;;;;;;28.13;34.72;101137.47;5080949;28;20400;-70
2022/08/03 00:40:10;;;;;;;4.82;2.33;;;;;;;28.12;34.67;101143.28;5075019;28;20048;-70
2022/08/03 00:42:49;;;;;;;3.70;2.17;;;;;;;28.11;35.23;101145.19;5081429;28;20086;-70
2022/08/03 00:45:18;;;;;;;3.80;2.25;;;;;;;28.05;34.56;101145.19;5079433;28;20047;-70
2022/08/03 00:47:46;;;;;;;4.78;2.42;;;;;;;28.01;34.72;101131.63;5088306;28;20046;-70
2022/08/03 00:50:15;;;;;;;5.55;2.45;;;;;;;27.99;34.87;101133.81;5086917;28;20048;-70
2022/08/03 00:52:44;;;;;;;5.38;2.58;;;;;;;27.97;34.97;101135.06;5087541;28;20415;-70
2022/08/03 00:55:12;;;;;;;4.13;2.28;;;;;;;27.93;35.11;101131.81;5094127;28;20058;-70
2022/08/03 00:57:41;;;;;;;3.50;2.35;;;;;;;27.89;35.27;101124.97;5083443;28;20396;-70
2022/08/03 01:00:13;;;;;;;3.58;2.17;;;;;;;27.89;35.49;101133.34;5078593;28;20047;-70
2022/08/03 01:02:41;;;;;;;3.85;2.33;;;;;;;27.82;35.10;101126.88;5087387;28;20046;-70
2022/08/03 01:05:10;;;;;;;3.45;2.13;;;;;;;27.84;35.28;101129.41;5086567;28;20443;-70
2022/08/03 01:07:53;;;;;;;3.97;2.30;;;;;;;27.84;35.83;101129.41;5087924;28;20134;-70
2022/08/03 01:10:25;;;;;;;;;;;;;;;27.50;35.50;101130.34;5084338;28;20036;-70
2022/08/03 01:12:59;;;;;;;3.72;2.00;;;;;;;27.72;35.65;101123.59;5084408;28;19965;-70
2022/08/03 01:15:38;;;;;;;4.28;2.55;;;;;;;27.75;35.64;101125.13;5070814;28;20051;-70
2022/08/03 01:18:14;;;;;;;3.60;2.30;;;;;;;27.72;35.66;101123.59;5087465;28;20147;-70
2022/08/03 01:20:47;;;;;;;3.58;2.47;;;;;;;27.68;35.68;101124.19;5074809;28;20055;-70
2022/08/03 01:23:50;;;;;;;3.55;2.08;;;;;;;27.60;35.77;101122.44;5086767;28;20040;-70
2022/08/03 01:27:02;;;;;;;4.95;2.55;;;;;;;27.56;35.70;101124.81;5085151;28;20139;-70
2022/08/03 01:29:52;;;;;;;3.97;2.53;;;;;;;27.50;35.88;101119.19;5058764;28;20047;-70
2022/08/03 01:32:25;;;;;;;4.05;2.10;;;;;;;27.48;35.73;101119.38;5078129;28;20631;-71
2022/08/03 01:35:16;;;;;;;4.55;2.70;;;;;;;27.45;35.74;101118.91;5073379;28;20474;-71
2022/08/03 01:37:51;;;;;;;4.18;2.33;;;;;;;27.44;36.21;101118.06;5088994;28;20043;-71
2022/08/03 01:40:22;;;;;;;3.58;2.40;;;;;;;27.40;36.00;101119.53;5079628;28;20504;-70
2022/08/03 01:42:51;;;;;;;3.45;1.92;;;;;;;27.39;35.71;101125.31;5079575;28;20040;-70
2022/08/03 01:45:22;;;;;;;3.42;2.25;;;;;;;27.38;36.47;101121.66;5089919;28;20125;-70
2022/08/03 01:47:52;;;;;;;4.18;2.38;;;;;;;27.34;36.38;101123.16;5082679;28;20041;-70
2022/08/03 01:50:24;;;;;;;3.83;2.35;;;;;;;27.34;36.10;101116.72;5077557;28;20400;-70
2022/08/03 01:52:54;;;;;;;3.83;2.27;;;;;;;27.28;36.25;101121.19;5092351;28;20530;-70
2022/08/03 01:55:26;;;;;;;6.38;2.55;;;;;;;27.30;36.40;101116.25;5089949;28;20718;-71
2022/08/03 01:57:56;;;;;;;3.90;2.03;;;;;;;27.27;36.24;101108.28;5073925;28;20323;-71
2022/08/03 02:00:36;;;;;;;3.22;2.17;;;;;;;27.26;36.44;101109.41;5094625;28;20139;-70
2022/08/03 02:03:06;;;;;;;4.38;2.42;;;;;;;27.21;36.20;101107.19;5101426;28;20089;-71
2022/08/03 02:05:36;;;;;;;3.78;2.47;;;;;;;27.21;36.39;101107.19;5075334;28;20127;-70
2022/08/03 02:08:05;;;;;;;3.78;2.33;;;;;;;27.20;36.26;101110.19;5090876;28;20064;-70
2022/08/03 02:10:36;;;;;;;3.53;2.25;;;;;;;27.20;36.49;101110.19;5089727;28;20550;-70
2022/08/03 02:13:07;;;;;;;3.65;2.33;;;;;;;27.17;36.49;101111.47;5090307;28;20488;-70
2022/08/03 02:15:38;;;;;;;3.85;2.60;;;;;;;27.16;36.86;101115.34;5089234;28;20051;-70
2022/08/03 02:18:09;;;;;;;4.53;2.63;;;;;;;27.14;36.73;101111.88;5090686;28;20036;-70
2022/08/03 02:20:38;;;;;;;3.40;1.95;;;;;;;27.11;36.61;101112.28;5070014;28;20055;-70
2022/08/03 02:23:07;;;;;;;4.57;2.80;;;;;;;27.08;36.62;101109.06;5089881;28;20036;-70
2022/08/03 02:25:41;;;;;;;4.35;2.70;;;;;;;27.09;37.09;101108.00;5089222;28;20503;-70
2022/08/03 02:28:12;;;;;;;4.35;2.47;;;;;;;27.06;36.94;101111.19;5087925;28;20493;-70
2022/08/03 02:30:45;;;;;;;4.47;2.50;;;;;;;27.05;36.71;101110.31;5088917;28;20043;-70
2022/08/03 02:33:24;;;;;;;3.72;2.25;;;;;;;27.01;36.88;101110.94;5090007;28;20404;-70
2022/08/03 02:35:54;;;;;;;4.07;2.55;;;;;;;27.00;36.79;101109.22;5088950;28;20040;-70
2022/08/03 02:38:28;;;;;;;4.22;2.53;;;;;;;26.98;36.86;101109.41;5077857;28;20404;-70
2022/08/03 02:40:58;;;;;;;4.03;2.50;;;;;;;26.95;37.02;101112.59;5089786;28;20047;-70
2022/08/03 02:43:27;;;;;;;3.78;2.50;;;;;;;26.91;36.85;101102.06;5093895;28;20078;-70
2022/08/03 02:46:19;;;;;;;4.32;2.25;;;;;;;26.87;37.31;101096.84;5103697;28;20114;-70
2022/08/03 02:48:51;;;;;;;4.13;2.60;;;;;;;26.85;36.86;101101.75;5077858;28;20122;-70
2022/08/03 02:51:20;;;;;;;4.15;2.40;;;;;;;26.83;36.88;101101.13;5089333;28;20063;-70
2022/08/03 02:53:49;;;;;;;4.60;2.80;;;;;;;26.81;37.18;101094.88;5083313;28;20104;-70
2022/08/03 02:56:19;;;;;;;4.75;2.60;;;;;;;26.80;37.32;101097.88;5079352;28;20415;-70
2022/08/03 02:58:48;;;;;;;4.03;2.40;;;;;;;26.78;37.24;101094.41;5086674;28;20036;-70
2022/08/03 03:01:21;;;;;;;4.55;2.72;;;;;;;26.78;37.61;101100.84;5089390;28;20043;-71
2022/08/03 03:03:50;;;;;;;3.70;2.42;;;;;;;26.74;37.34;101098.69;5084097;28;20491;-70
2022/08/03 03:06:21;;;;;;;3.60;2.47;;;;;;;26.72;37.54;101100.81;5053807;28;20059;-70
2022/08/03 03:08:51;;;;;;;4.80;3.00;;;;;;;26.72;37.41;101095.25;5085179;28;20567;-70
2022/08/03 03:11:26;;;;;;;3.78;2.47;;;;;;;26.69;37.41;101093.72;5089353;28;20036;-70
2022/08/03 03:13:57;;;;;;;3.90;2.30;;;;;;;26.71;37.59;101099.09;5100221;28;20097;-70
2022/08/03 03:16:29;;;;;;;4.47;2.47;;;;;;;26.70;37.53;101100.13;5089384;28;20044;-70
2022/08/03 03:18:58;;;;;;;4.18;2.75;;;;;;;26.65;37.47;101105.47;5088251;28;20089;-70
2022/08/03 03:21:27;;;;;;;4.55;2.38;;;;;;;26.65;37.42;101111.91;5070250;28;20048;-70
2022/08/03 03:23:56;;;;;;;4.50;2.58;;;;;;;26.66;37.43;101115.56;5074618;28;20032;-70
2022/08/03 03:26:24;;;;;;;4.07;2.55;;;;;;;26.64;37.61;101114.88;5089007;28;20075;-70
2022/08/03 03:28:52;;;;;;;5.72;2.75;;;;;;;26.64;37.64;101118.53;5087491;28;20405;-70
2022/08/03 03:31:20;;;;;;;5.00;2.80;;;;;;;26.62;37.71;101117.88;5070152;28;20047;-70
2022/08/03 03:33:50;;;;;;;4.07;2.40;;;;;;;26.63;37.47;101114.03;5088505;28;20044;-70
2022/08/03 03:36:18;;;;;;;5.05;2.85;;;;;;;26.60;37.67;101111.66;5070795;28;20048;-70
2022/08/03 03:38:46;;;;;;;4.50;2.80;;;;;;;26.59;37.85;101109.94;5086539;28;20098;-70
2022/08/03 03:41:15;;;;;;;4.55;2.78;;;;;;;26.56;37.86;101113.09;5089048;28;20055;-70
2022/08/03 03:43:43;;;;;;;4.25;2.80;;;;;;;26.57;37.74;101112.03;5088956;28;20070;-70
2022/08/03 03:46:12;;;;;;;4.32;2.85;;;;;;;26.56;37.87;101113.09;5081245;28;20176;-70
2022/08/03 03:48:41;;;;;;;3.72;2.63;;;;;;;26.53;37.97;101113.50;5072980;28;20044;-70
2022/08/03 03:51:10;;;;;;;4.60;2.70;;;;;;;26.56;37.96;101115.03;5088009;28;20036;-70
2022/08/03 03:53:38;;;;;;;4.38;2.55;;;;;;;26.51;37.95;101112.84;5080158;28;20052;-70
2022/08/03 03:56:06;;;;;;;4.80;2.80;;;;;;;26.51;37.98;101110.06;5087525;28;20086;-70
2022/08/03 03:58:34;;;;;;;4.10;2.47;;;;;;;26.50;38.18;101113.91;5085109;28;20102;-70
2022/08/03 04:01:02;;;;;;;3.85;2.42;;;;;;;26.47;38.19;101112.38;5073777;28;20036;-70
2022/08/03 04:03:31;;;;;;;4.07;2.70;;;;;;;26.48;38.26;101113.25;5101273;28;20044;-71
2022/08/03 04:11:50;;;;;;;4.20;2.65;;;;;;;26.45;38.44;101119.19;5017269;28;20080;-70
2022/08/03 04:14:20;;;;;;;5.40;3.22;;;;;;;26.42;38.05;101114.06;5073282;28;20087;-70
2022/08/03 04:16:51;;;;;;;5.07;2.65;;;;;;;26.42;38.18;101114.91;5087968;28;20515;-70
2022/08/03 04:19:26;;;;;;;5.07;2.67;;;;;;;26.42;38.20;101119.63;5087687;28;20563;-70
2022/08/03 04:22:00;;;;;;;5.40;3.00;;;;;;;26.41;38.02;101118.75;5088041;28;20066;-70
2022/08/03 04:24:33;;;;;;;4.53;2.75;;;;;;;26.39;38.39;101120.88;5068506;28;20170;-71
2022/08/03 04:27:06;;;;;;;6.88;2.75;;;;;;;26.39;38.51;101122.78;5080544;28;20059;-70
2022/08/03 04:29:37;;;;;;;4.53;2.97;;;;;;;26.35;38.30;101116.78;5077944;28;20421;-70
2022/08/03 04:32:16;;;;;;;5.50;2.55;;;;;;;26.33;38.30;101115.25;5081232;28;20493;-70
2022/08/03 04:34:45;;;;;;;6.05;3.08;;;;;;;26.31;38.07;101118.22;5084394;28;20048;-70
2022/08/03 04:37:20;;;;;;;4.07;2.92;;;;;;;26.33;38.91;101120.81;5080573;28;20101;-70
2022/08/03 04:39:53;;;;;;;4.18;2.70;;;;;;;26.30;38.24;101124.84;5068568;28;20055;-70
2022/08/03 04:42:25;;;;;;;4.90;2.80;;;;;;;26.26;38.54;101123.53;5088062;28;20097;-70
2022/08/03 04:44:56;;;;;;;5.20;2.90;;;;;;;26.27;38.67;101124.41;5074396;28;20044;-70
2022/08/03 04:47:30;;;;;;;6.00;3.35;;;;;;;26.26;38.36;101131.03;5086133;28;20048;-70
2022/08/03 04:50:00;;;;;;;4.28;2.70;;;;;;;26.25;38.33;101130.13;5095550;28;20125;-70
2022/08/03 04:52:28;;;;;;;4.40;2.85;;;;;;;26.27;38.75;101135.53;5087471;28;20519;-70
2022/08/03 04:54:57;;;;;;;5.20;2.97;;;;;;;26.29;38.55;101133.38;5086653;28;20059;-70
2022/08/03 04:57:25;;;;;;;4.60;3.30;;;;;;;26.27;38.83;101132.75;5087680;28;20098;-70
2022/08/03 04:59:55;;;;;;;5.30;3.10;;;;;;;26.29;38.94;101137.03;5085759;28;20051;-70
2022/08/03 05:02:30;;;;;;;4.65;2.78;;;;;;;26.29;38.87;101138.97;5071547;28;20055;-70
2022/08/03 05:04:59;;;;;;;3.95;2.88;;;;;;;26.30;38.75;101141.53;5084430;28;20067;-70
2022/08/03 05:07:27;;;;;;;5.13;3.13;;;;;;;26.31;39.04;101136.84;5087734;28;20047;-70
2022/08/03 05:10:07;;;;;;;5.75;3.20;;;;;;;26.33;39.04;101138.38;5082208;28;20480;-70
2022/08/03 05:12:44;;;;;;;3.97;2.85;;;;;;;26.33;38.78;101131.94;5089409;28;20104;-70
2022/08/03 05:15:12;;;;;;;4.32;3.03;;;;;;;26.36;39.05;101135.19;5087760;28;20525;-71
2022/08/03 05:17:41;;;;;;;6.35;3.08;;;;;;;26.41;39.12;101137.38;5076634;28;20051;-71
2022/08/03 05:20:10;;;;;;;4.53;2.78;;;;;;;26.47;38.91;101134.66;5090790;28;20048;-71
2022/08/03 05:22:38;;;;;;;5.13;3.10;;;;;;;26.54;39.06;101137.50;5091730;28;20035;-71
2022/08/03 05:25:08;;;;;;;5.80;3.65;;;;;;;26.65;38.88;101142.53;5090041;28;20082;-71
2022/08/03 05:27:44;;;;;;;4.72;3.03;;;;;;;26.73;38.81;101136.81;5091142;28;20422;-71
2022/08/03 05:30:12;;;;;;;5.10;3.15;;;;;;;26.85;39.10;101143.56;5089479;28;20054;-70
2022/08/03 05:33:01;;;;;;;4.38;2.88;;;;;;;27.01;39.04;101141.59;5091255;28;20055;-71
2022/08/03 05:35:29;;;;;;;4.95;3.20;;;;;;;27.17;38.88;101138.50;5091279;28;20153;-71
2022/08/03 05:38:17;;;;;;;3.78;2.60;;;;;;;27.38;38.86;101145.91;5090262;28;20039;-71
2022/08/03 05:40:58;;;;;;;5.63;3.00;;;;;;;27.66;38.64;101146.75;5098830;28;20057;-71
2022/08/03 05:43:46;;;;;;;4.22;2.75;;;;;;;27.89;38.06;101141.69;5090050;28;20048;-71
2022/08/03 05:46:14;;;;;;;4.80;2.78;;;;;;;28.20;37.82;101141.19;5091120;28;20119;-70
2022/08/03 05:48:43;;;;;;;4.03;2.80;;;;;;;28.48;37.57;101134.59;5090438;28;20036;-71
2022/08/03 05:51:11;;;;;;;4.97;2.80;;;;;;;28.77;37.10;101137.00;5092471;28;20131;-70
2022/08/03 05:53:40;;;;;;;5.43;2.97;;;;;;;29.04;36.77;101135.91;5097209;28;20047;-70
2022/08/03 05:56:10;;;;;;;4.22;2.85;;;;;;;29.34;35.93;101150.28;5078513;28;20055;-71
2022/08/03 05:58:42;;;;;;;5.45;3.22;;;;;;;29.58;35.76;101139.47;5038729;22;20045;-68
2022/08/03 06:01:11;;;;;;;6.55;2.80;;;;;;;29.80;35.30;101136.19;5013317;28;20042;-68
2022/08/03 06:03:39;;;;;;;4.68;2.92;;;;;;;30.03;35.03;101143.22;5011155;28;20073;-68
2022/08/03 06:06:07;;;;;;;3.83;2.70;;;;;;;30.22;34.62;101147.88;5021938;28;20294;-68
2022/08/03 06:08:35;;;;;;;4.88;3.15;;;;;;;30.37;34.23;101137.19;5004580;28;20099;-69
2022/08/03 06:11:03;;;;;;;5.18;2.88;;;;;;;30.51;34.10;101135.19;5010433;28;20054;-67
2022/08/03 06:13:33;;;;;;;4.60;3.25;;;;;;;30.66;33.68;101146.06;5016215;28;20041;-67
2022/08/03 06:16:01;;;;;;;4.70;2.75;;;;;;;30.75;33.54;101144.72;5028296;28;20087;-68
2022/08/03 06:18:29;;;;;;;4.95;3.13;;;;;;;30.82;33.43;101145.50;5015864;28;20520;-67
2022/08/03 06:20:57;;;;;;;4.78;2.83;;;;;;;30.88;32.92;101153.03;5010366;28;20092;-67
2022/08/03 06:23:44;;;;;;;5.25;2.85;;;;;;;30.92;32.89;101143.06;5015528;28;20045;-68
2022/08/03 06:26:24;;;;;;;4.43;2.78;;;;;;;30.93;33.01;101151.25;5015668;28;20081;-71
2022/08/03 06:28:54;;;;;;;4.60;2.60;;;;;;;30.93;32.97;101151.25;5012331;28;20045;-68
2022/08/03 06:31:24;;;;;;;3.95;2.78;;;;;;;30.90;32.99;101151.69;5014127;28;20116;-70
2022/08/03 06:34:02;;;;;;;4.00;2.83;;;;;;;30.88;32.94;101144.63;5009981;28;20183;-69
2022/08/03 06:36:51;;;;;;;3.58;2.42;;;;;;;30.87;33.07;101149.38;5009631;28;20076;-73
2022/08/03 06:39:20;;;;;;;3.65;2.55;;;;;;;30.89;33.08;101149.09;5020210;28;20046;-68
2022/08/03 06:41:51;;;;;;;4.82;2.70;;;;;;;30.94;33.26;101158.56;5010232;28;20042;-66
2022/08/03 06:44:20;;;;;;;4.28;2.80;;;;;;;31.01;32.98;101152.91;5008570;28;20061;-66
2022/08/03 06:46:49;;;;;;;5.22;2.90;;;;;;;31.04;33.07;101157.19;5009851;28;20041;-67
2022/08/03 06:49:18;;;;;;;4.70;2.72;;;;;;;31.09;33.06;101155.44;5008503;28;20054;-66
2022/08/03 06:51:46;;;;;;;4.75;2.60;;;;;;;31.17;32.99;101160.75;5009757;28;20045;-66
2022/08/03 06:54:35;;;;;;;3.70;2.33;;;;;;;31.25;32.89;101148.38;5008779;28;20045;-66
2022/08/03 06:57:04;;;;;;;4.85;2.33;;;;;;;31.32;32.91;101154.78;5009814;28;20157;-66
2022/08/03 06:59:34;;;;;;;4.32;2.42;;;;;;;31.41;32.66;101156.19;5016204;28;20164;-66
2022/08/03 07:02:22;;;;;;;4.03;2.60;;;;;;;31.48;32.70;101154.19;5021654;28;20041;-67
2022/08/03 07:04:50;;;;;;;4.93;2.70;;;;;;;31.58;32.45;101153.66;5014805;28;20129;-66
2022/08/03 07:07:19;;;;;;;5.13;3.10;;;;;;;31.66;32.33;101153.38;5009420;28;20042;-66
2022/08/03 07:09:48;;;;;;;4.85;2.72;;;;;;;31.74;32.34;101156.72;5008864;28;20054;-66
2022/08/03 07:12:26;;;;;;;4.03;2.70;;;;;;;31.85;32.24;101155.09;5009095;28;20049;-66
2022/08/03 07:14:56;;;;;;;4.57;3.20;;;;;;;31.95;31.96;101155.41;5008123;28;20339;-66
2022/08/03 07:17:30;;;;;;;4.82;3.05;;;;;;;32.02;32.05;101160.91;5021662;28;20045;-66
2022/08/03 07:19:58;;;;;;;6.03;2.95;;;;;;;32.12;31.98;101166.84;5020461;28;20095;-66
2022/08/03 07:22:27;;;;;;;4.32;2.30;;;;;;;32.21;31.85;101167.38;5020670;28;20128;-66
2022/08/03 07:24:55;;;;;;;4.22;2.20;;;;;;;32.30;31.89;101163.13;5008185;28;20691;-67
2022/08/03 07:27:25;;;;;;;3.83;1.95;;;;;;;32.39;31.53;101170.16;5009598;28;20049;-66
2022/08/03 07:29:54;;;;;;;3.10;2.10;;;;;;;32.50;31.43;101177.78;5012525;28;20052;-66
2022/08/03 07:32:24;;;;;;;4.43;2.20;;;;;;;32.62;31.38;101175.84;5029220;28;20091;-66
2022/08/03 07:34:52;;;;;;;4.07;2.30;;;;;;;32.69;30.84;101181.44;5010168;28;20042;-66
2022/08/03 07:37:26;;;;;;;5.15;2.40;;;;;;;32.77;31.24;101173.50;5009085;28;20478;-67
2022/08/03 07:39:54;;;;;;;5.05;2.35;;;;;;;32.86;30.79;101172.03;5014091;28;20042;-67
2022/08/03 07:42:23;;;;;;;3.05;2.13;;;;;;;32.94;30.70;101175.59;5009266;28;20507;-66
2022/08/03 07:44:51;;;;;;;4.72;2.28;;;;;;;33.01;30.40;101176.34;5026337;28;20402;-66
2022/08/03 07:47:19;;;;;;;3.78;2.17;;;;;;;33.07;30.46;101172.56;5009943;28;20407;-66
2022/08/03 07:49:51;;;;;;;5.72;2.60;;;;;;;33.15;30.34;101172.19;5007811;28;20045;-67
2022/08/03 07:55:06;;;;;;;3.72;2.30;;;;;;;33.23;30.62;101169.91;5025756;28;20045;-67
2022/08/03 07:57:34;;;;;;;4.32;2.45;;;;;;;33.29;30.24;101170.03;5010720;28;20042;-67
2022/08/03 08:00:05;;;;;;;4.50;2.25;;;;;;;33.36;30.19;101176.38;5016966;28;20052;-66
2022/08/03 08:02:39;;;;;;;4.55;2.15;;;;;;;33.38;30.27;101168.56;5008650;28;20132;-66
2022/08/03 08:05:09;;;;;;;3.78;2.10;;;;;;;33.47;30.18;101161.47;5015621;28;20083;-67
2022/08/03 08:07:38;;;;;;;3.67;2.45;;;;;;;33.52;30.38;101165.22;5008867;28;20045;-67
2022/08/03 08:10:08;;;;;;;5.20;2.55;;;;;;;33.61;30.04;101166.56;5007757;28;20168;-67
2022/08/03 08:12:37;;;;;;;3.17;2.10;;;;;;;33.67;29.96;101167.56;5020553;28;20100;-66
2022/08/03 08:15:07;;;;;;;3.58;2.15;;;;;;;33.77;29.80;101161.34;5010373;28;20041;-66
2022/08/03 08:17:42;;;;;;;3.47;2.17;;;;;;;33.86;29.75;101166.31;5013755;28;20068;-66
2022/08/03 08:20:17;;;;;;;3.65;2.00;;;;;;;33.94;28.91;101167.88;5010578;28;20069;-67
2022/08/03 08:22:56;;;;;;;4.78;2.40;;;;;;;33.98;29.09;101157.84;5008570;28;20037;-66
2022/08/03 08:25:28;;;;;;;7.05;2.38;;;;;;;34.08;29.20;101166.53;5002876;28;20468;-66
2022/08/03 08:27:56;;;;;;;4.35;2.33;;;;;;;34.14;29.37;101168.31;5009884;28;20108;-67
2022/08/03 08:30:44;;;;;;;4.70;2.72;;;;;;;34.23;28.57;101157.50;5008284;28;20042;-67
2022/08/03 08:33:13;;;;;;;4.78;2.30;;;;;;;34.32;28.75;101156.03;5023474;28;20058;-66
2022/08/03 08:35:53;;;;;;;4.43;2.15;;;;;;;34.43;28.30;101157.94;5007339;28;20042;-67
2022/08/03 08:38:22;;;;;;;4.40;2.17;;;;;;;34.49;28.53;101156.94;5015515;28;20088;-67
2022/08/03 08:40:51;;;;;;;4.35;2.10;;;;;;;34.57;28.53;101162.16;4997214;28;20047;-67
2022/08/03 08:43:19;;;;;;;3.40;2.30;;;;;;;34.64;28.18;101160.03;5008340;28;20445;-66
2022/08/03 08:45:49;;;;;;;3.65;2.22;;;;;;;34.76;27.98;101167.63;5014342;28;20115;-66
2022/08/03 08:48:24;;;;;;;5.00;2.30;;;;;;;34.85;27.48;101161.28;5035116;28;20057;-66
2022/08/03 08:50:55;;;;;;;3.50;1.85;;;;;;;34.94;27.56;101154.09;5003772;28;20431;-66
2022/08/03 08:53:26;;;;;;;4.32;1.83;;;;;;;35.01;27.26;101146.31;4992820;28;20065;-65
2022/08/03 08:55:59;;;;;;;5.55;2.28;;;;;;;35.11;27.63;101160.59;5014479;28;20722;-66
2022/08/03 08:58:30;;;;;;;3.80;1.90;;;;;;;35.22;27.25;101160.78;5023090;28;20096;-66
2022/08/03 09:00:58;;;;;;;5.63;2.08;;;;;;;35.29;27.30;101153.88;5012111;28;20494;-67
2022/08/03 09:03:26;;;;;;;3.90;1.80;;;;;;;35.38;27.34;101157.97;5023468;28;20052;-67
2022/08/03 09:06:00;;;;;;;2.75;1.80;;;;;;;35.50;26.99;101152.19;5018019;28;20042;-67
2022/08/03 09:08:29;;;;;;;;;;;;;;;35.26;27.61;101156.34;5015928;28;20350;-66
2022/08/03 09:10:57;;;;;;;3.25;1.77;;;;;;;35.61;26.71;101153.19;5017323;28;19961;-67
2022/08/03 09:13:26;;;;;;;3.78;1.77;;;;;;;35.74;26.26;101161.34;5015923;28;20395;-66
2022/08/03 09:16:10;;;;;;;3.60;1.80;;;;;;;35.85;26.07;101154.69;5011512;28;20046;-67
2022/08/03 09:18:39;;;;;;;3.33;1.55;;;;;;;35.90;25.91;101154.78;5023743;28;20096;-67
2022/08/03 09:21:21;;;;;;;4.47;1.70;;;;;;;36.02;25.59;101154.63;5011295;28;20134;-68
2022/08/03 09:24:05;;;;;;;3.92;1.90;;;;;;;36.08;26.18;101157.25;5019007;28;20413;-67
2022/08/03 09:26:50;;;;;;;5.32;1.70;;;;;;;36.19;25.06;101156.28;5019923;28;20514;-67
2022/08/03 09:29:21;;;;;;;3.65;1.58;;;;;;;36.24;25.66;101155.47;5017553;28;20526;-66
2022/08/03 09:31:59;;;;;;;3.88;1.48;;;;;;;36.31;25.17;101152.47;5021535;28;20042;-68
2022/08/03 09:34:27;;;;;;;3.90;1.70;;;;;;;36.41;25.40;101159.06;5015907;28;20124;-66
2022/08/03 09:36:57;;;;;;;3.90;1.60;;;;;;;36.50;25.07;101163.13;5010885;28;20069;-66
2022/08/03 09:39:30;;;;;;;3.03;1.30;;;;;;;36.56;24.91;101153.59;5024706;28;20083;-67
2022/08/03 09:42:10;;;;;;;2.92;1.50;;;;;;;36.65;25.06;101153.97;5021312;28;20052;-66
2022/08/03 09:44:43;;;;;;;3.15;1.52;;;;;;;36.73;24.61;101149.81;5016429;28;20041;-68
2022/08/03 09:47:14;;;;;;;2.22;1.25;;;;;;;36.82;24.64;101151.00;5013251;28;20096;-68
2022/08/03 09:49:55;;;;;;;4.03;1.50;;;;;;;36.85;25.06;101151.34;5010535;28;20125;-68
2022/08/03 09:52:31;;;;;;;3.33;1.50;;;;;;;36.94;24.50;101143.22;5020900;28;20141;-68
2022/08/03 09:55:19;;;;;;;4.13;1.50;;;;;;;37.01;25.13;101140.16;5020683;28;20044;-68
2022/08/03 09:58:09;;;;;;;4.32;1.48;;;;;;;37.10;24.19;101145.03;5014417;28;20045;-67
2022/08/03 10:00:53;;;;;;;1.95;1.23;;;;;;;37.21;24.14;101146.00;5013180;28;20042;-67
2022/08/03 10:03:22;;;;;;;2.08;1.25;;;;;;;37.26;23.76;101144.06;5010281;28;20050;-68
2022/08/03 10:05:51;;;;;;;2.72;1.02;;;;;;;37.36;23.75;101142.44;5010268;28;20042;-68
2022/08/03 10:08:27;;;;;;;2.63;1.20;;;;;;;37.46;23.46;101142.50;5015089;28;20507;-68
2022/08/03 10:10:57;;;;;;;2.47;1.10;;;;;;;37.51;23.55;101149.03;5009991;28;20053;-68
2022/08/03 10:13:25;;;;;;;2.97;1.20;;;;;;;37.59;23.39;101137.22;5014213;28;20046;-67
2022/08/03 10:15:53;;;;;;;3.28;1.40;;;;;;;37.68;23.93;101140.38;5009274;28;20070;-67
2022/08/03 10:18:41;;;;;;;2.22;1.20;;;;;;;37.76;23.75;101137.03;5027805;28;20044;-66
2022/08/03 10:21:12;;;;;;;2.67;1.02;;;;;;;37.86;23.37;101137.06;5021675;28;20498;-65
2022/08/03 10:23:42;;;;;;;3.13;1.10;;;;;;;37.92;23.00;101138.78;5010988;28;20034;-66
2022/08/03 10:26:13;;;;;;;3.08;1.20;;;;;;;38.03;22.40;101142.53;5010390;28;20050;-66
2022/08/03 10:28:48;;;;;;;3.03;1.05;;;;;;;38.09;22.40;101132.94;5013525;28;20379;-66
2022/08/03 10:31:20;;;;;;;3.42;1.33;;;;;;;38.17;22.39;101129.56;5014289;28;20054;-66
2022/08/03 10:33:51;;;;;;;2.28;1.17;;;;;;;38.25;22.42;101129.00;5018706;28;20049;-67
2022/08/03 10:36:24;;;;;;;2.42;1.10;;;;;;;38.33;22.17;101128.47;5009820;28;20454;-66
2022/08/03 10:38:55;;;;;;;3.47;1.55;;;;;;;38.40;22.19;101128.19;5026782;28;20063;-67
2022/08/03 10:41:31;;;;;;;2.72;1.05;;;;;;;38.46;22.21;101122.22;5011592;28;20042;-66
2022/08/03 10:44:04;;;;;;;3.03;1.30;;;;;;;38.54;22.17;101117.19;5004162;28;20073;-66
2022/08/03 10:46:35;;;;;;;2.42;1.05;;;;;;;38.59;21.53;101118.03;5017214;28;20076;-66
2022/08/03 10:49:08;;;;;;;2.17;1.00;;;;;;;38.63;22.03;101109.84;5009147;28;20046;-66
2022/08/03 10:51:37;;;;;;;5.25;1.20;;;;;;;38.69;21.83;101105.84;5009558;28;20545;-66
2022/08/03 10:54:06;;;;;;;1.58;1.10;;;;;;;38.77;20.93;101108.13;5008047;28;20056;-66
2022/08/03 10:59:59;;;;;;;2.70;1.27;;;;;;;38.86;21.29;101100.75;5007206;28;20049;-66
2022/08/03 11:02:47;;;;;;;;;;;;;;;38.62;22.20;101105.28;5012203;28;20085;-66
2022/08/03 11:05:26;;;;;;;2.40;1.33;;;;;;;38.99;21.31;101100.19;4991253;28;19928;-67
2022/08/03 11:08:33;;;;;;;3.85;1.30;;;;;;;39.06;21.25;101094.22;5009313;28;20411;-66
2022/08/03 11:11:27;;;;;;;2.85;1.15;;;;;;;39.09;20.89;101085.97;5006637;28;20505;-66
2022/08/03 11:14:01;;;;;;;2.13;1.10;;;;;;;39.17;20.95;101079.72;5014786;28;20048;-65
2022/08/03 11:16:31;;;;;;;2.25;1.02;;;;;;;39.22;20.82;101080.81;5009361;28;20050;-66
2022/08/03 11:19:01;;;;;;;4.05;1.40;;;;;;;39.27;20.35;101084.53;5007975;28;20464;-65
2022/08/03 11:21:52;;;;;;;2.75;1.15;;;;;;;39.29;20.48;101081.41;5009203;28;20136;-66
2022/08/03 11:24:55;;;;;;;3.42;1.30;;;;;;;39.35;20.09;101086.78;5012475;28;20053;-66
2022/08/03 11:27:26;;;;;;;4.50;1.30;;;;;;;39.38;20.32;101074.84;5007622;28;20057;-67
2022/08/03 11:29:56;;;;;;;3.35;1.20;;;;;;;39.41;20.99;101074.28;5016616;28;20060;-66
2022/08/03 11:32:58;;;;;;;1.85;1.05;;;;;;;39.46;20.26;101074.25;5009297;28;20090;-67
2022/08/03 11:35:29;;;;;;;3.13;1.20;;;;;;;39.50;20.50;101068.84;5004326;28;20133;-67
2022/08/03 11:38:08;;;;;;;3.70;1.10;;;;;;;39.55;19.97;101068.81;5011249;28;20041;-67
2022/08/03 11:40:39;;;;;;;2.42;1.13;;;;;;;39.59;19.79;101071.94;5007639;28;20054;-66
2022/08/03 11:43:10;;;;;;;2.43;1.00;;;;;;;39.63;20.13;101076.75;5014801;28;20049;-67
2022/08/03 11:45:38;;;;;;;2.17;1.15;;;;;;;39.64;19.92;101071.91;5014546;28;20785;-66
2022/08/03 11:48:17;;;;;;;2.67;1.23;;;;;;;39.72;20.01;101074.16;5010552;28;20038;-66
2022/08/03 11:50:45;;;;;;;2.20;1.30;;;;;;;39.72;19.61;101065.63;5026598;28;20065;-66
2022/08/03 11:53:18;;;;;;;4.60;1.17;;;;;;;39.79;19.33;101063.31;5008626;28;20080;-66
2022/08/03 11:55:48;;;;;;;2.10;1.00;;;;;;;39.79;19.05;101074.69;4988127;28;20070;-66
2022/08/03 11:58:20;;;;;;;3.30;1.30;;;;;;;39.83;18.77;101068.19;5042397;22;20072;-82
2022/08/03 12:01:10;;;;;;;2.35;1.10;;;;;;;39.81;19.04;101064.72;5025562;28;20045;-83
2022/08/03 12:03:38;;;;;;;2.88;1.27;;;;;;;39.85;18.62;101074.44;5008783;28;20448;-83
2022/08/03 12:06:10;;;;;;;3.00;1.20;;;;;;;39.89;18.17;101072.69;5022262;28;20042;-82